Time;durP1;ratioP1;P1;durP2;ratioP2;P2;SDS_P1;SDS_P2;PMS_P1;PMS_P2;Temp;Humidity;BMP_temperature;BMP_pressure;BME280_temperature;BME280_humidity;BME280_pressure;Samples;Min_cycle;Max_cycle;Signal;HPM_P1;HPM_P2
2023/08/25 00:00:22;;;;;;;;;;;27.60;91.30;;;;;;5094089;28;20366;-73
2023/08/25 00:02:47;;;;;;;;;;;27.60;91.30;;;;;;5095576;28;19908;-72
2023/08/25 00:05:13;;;;;;;;;;;27.60;91.30;;;;;;5095381;28;20323;-73
2023/08/25 00:07:38;;;;;;;;;;;27.60;91.20;;;;;;5095583;28;19935;-73
2023/08/25 00:10:05;;;;;;;;;;;27.60;91.30;;;;;;5095173;28;20387;-74
2023/08/25 00:12:31;;;;;;;;;;;27.60;91.30;;;;;;5095542;28;20012;-73
2023/08/25 00:14:56;;;;;;;;;;;27.60;91.20;;;;;;5095342;28;19958;-74
2023/08/25 00:17:22;;;;;;;;;;;27.60;91.20;;;;;;5095040;28;19934;-75
2023/08/25 00:19:47;;;;;;;;;;;27.60;91.20;;;;;;5095024;28;19908;-75
2023/08/25 00:22:13;;;;;;;;;;;27.60;91.30;;;;;;5095242;28;19908;-74
2023/08/25 00:24:38;;;;;;;;;;;27.70;91.30;;;;;;5095130;28;19912;-76
2023/08/25 00:27:04;;;;;;;;;;;27.70;91.30;;;;;;5095160;28;19964;-73
2023/08/25 00:29:30;;;;;;;;;;;27.70;91.30;;;;;;5094546;28;19908;-74
2023/08/25 00:31:55;;;;;;;;;;;27.60;91.30;;;;;;5094469;28;19943;-75
2023/08/25 00:34:21;;;;;;;;;;;27.60;91.30;;;;;;5095099;28;20278;-73
2023/08/25 00:36:46;;;;;;;;;;;27.60;91.30;;;;;;5094989;28;19992;-72
2023/08/25 00:39:12;;;;;;;;;;;27.60;91.30;;;;;;5094969;28;19931;-75
2023/08/25 00:41:38;;;;;;;;;;;27.60;91.30;;;;;;5094943;28;19908;-74
2023/08/25 00:44:03;;;;;;;;;;;27.70;91.30;;;;;;5094773;28;20363;-73
2023/08/25 00:46:30;;;;;;;;;;;27.60;91.30;;;;;;5095086;28;20278;-73
2023/08/25 00:48:55;;;;;;;;;;;27.60;91.30;;;;;;5094692;28;20007;-74
2023/08/25 00:51:21;;;;;;;;;;;27.70;91.30;;;;;;5094403;28;20323;-73
2023/08/25 00:53:47;;;;;;;;;;;27.60;91.20;;;;;;5094685;28;19912;-73
2023/08/25 00:56:15;;;;;;;;;;;27.60;91.20;;;;;;5094670;28;19909;-73
2023/08/25 00:58:40;;;;;;;;;;;27.60;91.20;;;;;;5094578;28;19908;-74
2023/08/25 01:01:06;;;;;;;;;;;27.60;91.20;;;;;;5094836;28;19914;-74
2023/08/25 01:03:32;;;;;;;;;;;27.70;91.30;;;;;;5094526;28;19958;-75
2023/08/25 01:05:58;;;;;;;;;;;27.70;91.30;;;;;;5094787;28;20339;-72
2023/08/25 01:08:24;;;;;;;;;;;27.60;91.20;;;;;;5094108;28;19915;-75
2023/08/25 01:11:28;;;;;;;;;;;27.60;91.20;;;;;;5094315;28;19912;-72
2023/08/25 01:14:06;;;;;;;;;;;27.60;91.20;;;;;;5071634;28;19920;-72
2023/08/25 01:16:36;;;;;;;;;;;27.60;91.20;;;;;;5071706;28;19915;-74
2023/08/25 01:19:04;;;;;;;;;;;27.60;91.20;;;;;;5084689;28;19958;-75
2023/08/25 01:21:30;;;;;;;;;;;27.70;91.30;;;;;;5093983;28;19965;-72
2023/08/25 01:24:12;;;;;;;;;;;27.60;91.20;;;;;;5094246;28;19915;-75
2023/08/25 01:26:38;;;;;;;;;;;27.60;91.20;;;;;;5093872;28;20336;-66
2023/08/25 01:29:03;;;;;;;;;;;27.60;91.20;;;;;;5094525;28;19915;-74
2023/08/25 01:31:29;;;;;;;;;;;27.60;91.20;;;;;;5093776;28;19912;-73
2023/08/25 01:33:55;;;;;;;;;;;27.70;91.20;;;;;;5094415;28;19918;-73
2023/08/25 01:36:20;;;;;;;;;;;27.60;91.20;;;;;;5094051;28;19908;-75
2023/08/25 01:38:54;;;;;;;;;;;27.60;91.20;;;;;;5093784;28;19957;-72
2023/08/25 01:41:19;;;;;;;;;;;27.60;91.20;;;;;;5093676;28;20010;-72
2023/08/25 01:43:47;;;;;;;;;;;27.70;91.20;;;;;;5094045;28;19955;-72
2023/08/25 01:46:15;;;;;;;;;;;27.60;91.20;;;;;;5093520;28;19920;-72
2023/08/25 01:48:43;;;;;;;;;;;27.60;91.20;;;;;;5093576;28;20396;-70
2023/08/25 01:51:09;;;;;;;;;;;27.60;91.20;;;;;;5093985;28;19912;-68
2023/08/25 01:53:34;;;;;;;;;;;27.60;91.10;;;;;;5093702;28;19935;-71
2023/08/25 01:56:00;;;;;;;;;;;27.60;91.20;;;;;;5093932;28;20386;-72
2023/08/25 01:58:25;;;;;;;;;;;27.70;91.20;;;;;;5093906;28;19908;-72
2023/08/25 02:00:50;;;;;;;;;;;27.60;91.10;;;;;;5093809;28;19908;-72
2023/08/25 02:03:17;;;;;;;;;;;27.60;91.20;;;;;;5093870;28;19908;-72
2023/08/25 02:05:43;;;;;;;;;;;27.60;91.20;;;;;;5093789;28;19939;-72
2023/08/25 02:08:08;;;;;;;;;;;27.60;91.20;;;;;;5093468;28;19920;-64
2023/08/25 02:10:34;;;;;;;;;;;27.70;91.20;;;;;;5093376;28;20011;-73
2023/08/25 02:12:59;;;;;;;;;;;27.60;91.40;;;;;;5093691;28;19912;-71
2023/08/25 02:15:25;;;;;;;;;;;27.60;91.20;;;;;;5093375;28;19908;-72
2023/08/25 02:17:50;;;;;;;;;;;27.60;91.20;;;;;;5093394;28;19915;-72
2023/08/25 02:20:16;;;;;;;;;;;27.60;91.20;;;;;;5093607;28;20014;-72
2023/08/25 02:22:41;;;;;;;;;;;27.60;91.10;;;;;;5093528;28;19908;-71
2023/08/25 02:25:07;;;;;;;;;;;27.60;91.10;;;;;;5093356;28;19908;-72
2023/08/25 02:27:32;;;;;;;;;;;27.60;91.20;;;;;;5092182;28;19909;-70
2023/08/25 02:29:58;;;;;;;;;;;27.60;91.10;;;;;;5093501;28;19920;-68
2023/08/25 02:32:23;;;;;;;;;;;27.60;91.10;;;;;;5093793;28;19912;-72
2023/08/25 02:34:49;;;;;;;;;;;27.60;91.10;;;;;;5093498;28;19914;-72
2023/08/25 02:37:14;;;;;;;;;;;27.60;91.00;;;;;;5093499;28;19912;-69
2023/08/25 02:39:40;;;;;;;;;;;27.60;91.10;;;;;;5093426;28;19934;-72
2023/08/25 02:42:05;;;;;;;;;;;27.60;91.10;;;;;;5093560;28;19935;-72
2023/08/25 02:44:31;;;;;;;;;;;27.60;91.00;;;;;;5093442;28;19908;-74
2023/08/25 02:46:56;;;;;;;;;;;27.60;91.00;;;;;;5093733;28;19959;-74
2023/08/25 02:49:22;;;;;;;;;;;27.60;91.00;;;;;;5093101;28;19915;-75
2023/08/25 02:51:47;;;;;;;;;;;27.60;91.00;;;;;;5093349;28;19912;-75
2023/08/25 02:54:13;;;;;;;;;;;27.60;91.00;;;;;;5095287;28;19912;-76
2023/08/25 02:56:38;;;;;;;;;;;27.60;91.00;;;;;;5096743;28;19912;-75
2023/08/25 02:59:04;;;;;;;;;;;27.60;91.00;;;;;;5096996;28;19981;-75
2023/08/25 03:01:29;;;;;;;;;;;27.60;91.00;;;;;;5096963;28;19912;-75
2023/08/25 03:03:55;;;;;;;;;;;27.60;91.00;;;;;;5096846;28;19962;-73
2023/08/25 03:06:21;;;;;;;;;;;27.60;90.90;;;;;;5096806;28;19915;-75
2023/08/25 03:08:46;;;;;;;;;;;27.60;90.70;;;;;;5096743;28;19912;-75
2023/08/25 03:11:12;;;;;;;;;;;27.60;90.70;;;;;;5096348;28;20114;-75
2023/08/25 03:13:37;;;;;;;;;;;27.60;90.60;;;;;;5096351;28;19965;-75
2023/08/25 03:16:03;;;;;;;;;;;27.60;90.80;;;;;;5096307;28;19947;-75
2023/08/25 03:18:28;;;;;;;;;;;27.60;90.90;;;;;;5096256;28;19935;-75
2023/08/25 03:20:54;;;;;;;;;;;27.60;90.90;;;;;;5096524;28;20231;-74
2023/08/25 03:23:20;;;;;;;;;;;27.60;90.90;;;;;;5096222;28;19908;-73
2023/08/25 03:25:45;;;;;;;;;;;27.60;90.90;;;;;;5096119;28;19908;-74
2023/08/25 03:28:11;;;;;;;;;;;27.60;90.90;;;;;;5096309;28;19915;-72
2023/08/25 03:30:37;;;;;;;;;;;27.60;90.80;;;;;;5096267;28;19916;-73
2023/08/25 03:33:03;;;;;;;;;;;27.60;90.90;;;;;;5096016;28;20312;-74
2023/08/25 03:35:32;;;;;;;;;;;27.60;90.90;;;;;;5094890;28;19912;-74
2023/08/25 03:37:57;;;;;;;;;;;27.60;90.90;;;;;;5095897;28;19942;-74
2023/08/25 03:40:23;;;;;;;;;;;27.60;90.90;;;;;;5096150;28;19954;-74
2023/08/25 03:42:48;;;;;;;;;;;27.60;90.90;;;;;;5096126;28;19912;-74
2023/08/25 03:45:14;;;;;;;;;;;27.60;90.90;;;;;;5095728;28;19926;-74
2023/08/25 03:47:40;;;;;;;;;;;27.60;90.90;;;;;;5095758;28;19915;-74
2023/08/25 03:50:05;;;;;;;;;;;27.60;90.80;;;;;;5095819;28;20286;-74
2023/08/25 03:52:31;;;;;;;;;;;27.60;90.70;;;;;;5095848;28;19922;-74
2023/08/25 03:54:56;;;;;;;;;;;27.60;90.50;;;;;;5094474;28;19943;-75
2023/08/25 03:57:22;;;;;;;;;;;27.60;90.60;;;;;;5095830;28;19961;-74
2023/08/25 03:59:47;;;;;;;;;;;27.60;90.60;;;;;;5095871;28;19908;-74
2023/08/25 04:02:13;;;;;;;;;;;27.60;90.60;;;;;;5095394;28;19908;-74
2023/08/25 04:04:38;;;;;;;;;;;27.60;90.70;;;;;;5093473;28;20351;-76
2023/08/25 04:07:04;;;;;;;;;;;27.60;90.70;;;;;;5095480;28;20003;-75
2023/08/25 04:09:29;;;;;;;;;;;27.60;90.80;;;;;;5095538;28;19915;-75
2023/08/25 04:11:55;;;;;;;;;;;27.60;90.80;;;;;;5095386;28;19916;-75
2023/08/25 04:14:21;;;;;;;;;;;27.60;90.70;;;;;;5095359;28;19908;-75
2023/08/25 04:16:46;;;;;;;;;;;27.60;90.70;;;;;;5095097;28;20057;-75
2023/08/25 04:19:13;;;;;;;;;;;27.60;90.40;;;;;;5095079;28;19909;-68
2023/08/25 04:21:39;;;;;;;;;;;27.60;90.30;;;;;;5095357;28;19919;-74
2023/08/25 04:24:04;;;;;;;;;;;27.60;90.40;;;;;;5095542;28;19908;-73
2023/08/25 04:26:30;;;;;;;;;;;27.60;90.50;;;;;;5095275;28;19908;-74
2023/08/25 04:28:55;;;;;;;;;;;27.60;90.60;;;;;;5093987;28;20377;-74
2023/08/25 04:31:21;;;;;;;;;;;27.60;90.70;;;;;;5094937;28;19912;-74
2023/08/25 04:33:46;;;;;;;;;;;27.60;90.70;;;;;;5095104;28;19916;-73
2023/08/25 04:36:12;;;;;;;;;;;27.60;90.80;;;;;;5095066;28;19914;-73
2023/08/25 04:38:37;;;;;;;;;;;27.60;90.80;;;;;;5093591;28;19987;-75
2023/08/25 04:41:03;;;;;;;;;;;27.60;90.80;;;;;;5095319;28;19908;-74
2023/08/25 04:43:28;;;;;;;;;;;27.60;90.80;;;;;;5094926;28;19918;-74
2023/08/25 04:45:54;;;;;;;;;;;27.60;90.80;;;;;;5094652;28;20363;-74
2023/08/25 04:48:19;;;;;;;;;;;27.60;90.80;;;;;;5094881;28;19915;-74
2023/08/25 04:50:44;;;;;;;;;;;27.60;90.80;;;;;;5094467;28;20024;-74
2023/08/25 04:53:10;;;;;;;;;;;27.60;90.80;;;;;;5094540;28;19919;-74
2023/08/25 04:55:35;;;;;;;;;;;27.60;90.80;;;;;;5094655;28;20339;-74
2023/08/25 04:58:01;;;;;;;;;;;27.60;90.70;;;;;;5093074;28;19908;-74
2023/08/25 05:00:29;;;;;;;;;;;27.60;90.50;;;;;;5094497;28;19977;-75
2023/08/25 05:02:54;;;;;;;;;;;27.60;90.40;;;;;;5094543;28;19962;-74
2023/08/25 05:05:19;;;;;;;;;;;27.60;90.30;;;;;;5094560;28;19916;-74
2023/08/25 05:07:45;;;;;;;;;;;27.60;90.40;;;;;;5094508;28;19933;-74
2023/08/25 05:10:11;;;;;;;;;;;27.60;90.40;;;;;;5094427;28;19916;-74
2023/08/25 05:12:38;;;;;;;;;;;27.60;90.40;;;;;;5094631;28;19923;-74
2023/08/25 05:15:03;;;;;;;;;;;27.60;90.30;;;;;;5093088;28;20018;-74
2023/08/25 05:17:29;;;;;;;;;;;27.60;90.10;;;;;;5093903;28;19973;-74
2023/08/25 05:19:54;;;;;;;;;;;27.60;90.10;;;;;;5094363;28;19934;-74
2023/08/25 05:22:20;;;;;;;;;;;27.60;90.10;;;;;;5094156;28;20032;-75
2023/08/25 05:24:45;;;;;;;;;;;27.60;90.00;;;;;;5094306;28;19908;-75
2023/08/25 05:27:11;;;;;;;;;;;27.60;89.90;;;;;;5093920;28;19999;-74
2023/08/25 05:29:37;;;;;;;;;;;27.60;89.50;;;;;;5093948;28;19908;-75
2023/08/25 05:32:03;;;;;;;;;;;27.60;89.50;;;;;;5093913;28;20367;-75
2023/08/25 05:34:28;;;;;;;;;;;27.60;89.50;;;;;;5094161;28;19912;-75
2023/08/25 05:36:54;;;;;;;;;;;27.60;89.70;;;;;;5093966;28;19915;-76
2023/08/25 05:39:22;;;;;;;;;;;27.50;89.60;;;;;;5094368;28;20373;-75
2023/08/25 05:41:48;;;;;;;;;;;27.60;89.40;;;;;;5094115;28;19915;-75
2023/08/25 05:44:13;;;;;;;;;;;27.60;89.20;;;;;;5093958;28;20359;-74
2023/08/25 05:46:39;;;;;;;;;;;27.60;89.10;;;;;;5093485;28;20007;-75
2023/08/25 05:49:05;;;;;;;;;;;27.50;89.20;;;;;;5093507;28;19915;-74
2023/08/25 05:51:31;;;;;;;;;;;27.50;89.40;;;;;;5093645;28;19912;-74
2023/08/25 05:53:56;;;;;;;;;;;27.60;89.50;;;;;;5093526;28;19919;-74
2023/08/25 05:56:22;;;;;;;;;;;27.50;89.50;;;;;;5093557;28;19989;-74
2023/08/25 05:58:47;;;;;;;;;;;27.50;89.40;;;;;;5093463;28;20330;-74
2023/08/25 06:01:12;;;;;;;;;;;27.60;89.50;;;;;;5093840;28;20006;-74
2023/08/25 06:03:38;;;;;;;;;;;27.50;89.40;;;;;;5093633;28;19918;-76
2023/08/25 06:06:04;;;;;;;;;;;27.60;89.40;;;;;;5093346;28;19985;-74
2023/08/25 06:08:30;;;;;;;;;;;27.50;89.20;;;;;;5093577;28;19977;-75
2023/08/25 06:10:55;;;;;;;;;;;27.60;89.00;;;;;;5093490;28;19914;-74
2023/08/25 06:13:21;;;;;;;;;;;27.60;88.80;;;;;;5093349;28;20010;-74
2023/08/25 06:15:48;;;;;;;;;;;27.50;88.80;;;;;;5093268;28;19908;-73
2023/08/25 06:18:14;;;;;;;;;;;27.60;89.00;;;;;;5092243;28;19999;-74
2023/08/25 06:20:39;;;;;;;;;;;27.50;88.90;;;;;;5093493;28;19958;-75
2023/08/25 06:23:05;;;;;;;;;;;27.50;88.90;;;;;;5093136;28;19952;-75
2023/08/25 06:25:31;;;;;;;;;;;27.50;89.00;;;;;;5093322;28;20287;-74
2023/08/25 06:27:56;;;;;;;;;;;27.50;89.20;;;;;;5093267;28;19960;-74
2023/08/25 06:30:23;;;;;;;;;;;27.50;89.90;;;;;;5097085;28;19912;-74
2023/08/25 06:32:49;;;;;;;;;;;27.60;89.50;;;;;;5097333;28;20373;-74
2023/08/25 06:35:14;;;;;;;;;;;27.60;89.30;;;;;;5097309;28;19978;-74
2023/08/25 06:37:40;;;;;;;;;;;27.50;89.40;;;;;;5097060;28;20065;-74
2023/08/25 06:40:07;;;;;;;;;;;27.50;89.50;;;;;;5096682;28;19916;-74
2023/08/25 06:42:33;;;;;;;;;;;27.60;89.50;;;;;;5096594;28;19959;-74
2023/08/25 06:44:59;;;;;;;;;;;27.60;89.60;;;;;;5096522;28;19919;-74
2023/08/25 06:47:24;;;;;;;;;;;27.50;89.60;;;;;;5096929;28;19908;-75
2023/08/25 06:49:50;;;;;;;;;;;27.50;89.70;;;;;;5095572;28;19990;-74
2023/08/25 06:52:15;;;;;;;;;;;27.50;89.80;;;;;;5097035;28;19912;-74
2023/08/25 06:54:41;;;;;;;;;;;27.50;89.80;;;;;;5096935;28;19908;-75
2023/08/25 06:57:07;;;;;;;;;;;27.50;89.80;;;;;;5096849;28;20007;-74
2023/08/25 06:59:32;;;;;;;;;;;27.50;89.60;;;;;;5096430;28;20304;-75
2023/08/25 07:01:58;;;;;;;;;;;27.50;89.70;;;;;;5096448;28;19908;-75
2023/08/25 07:04:23;;;;;;;;;;;27.50;89.60;;;;;;5096416;28;19908;-75
2023/08/25 07:06:49;;;;;;;;;;;27.50;89.50;;;;;;5096375;28;19917;-75
2023/08/25 07:09:15;;;;;;;;;;;27.50;89.50;;;;;;5096423;28;19908;-72
2023/08/25 07:11:40;;;;;;;;;;;27.50;89.50;;;;;;5096589;28;20266;-75
2023/08/25 07:14:06;;;;;;;;;;;27.50;89.70;;;;;;5096534;28;19916;-75
2023/08/25 07:16:31;;;;;;;;;;;27.50;89.90;;;;;;5095181;28;19928;-75
2023/08/25 07:18:57;;;;;;;;;;;27.50;89.90;;;;;;5096147;28;20425;-75
2023/08/25 07:21:23;;;;;;;;;;;27.50;90.00;;;;;;5096315;28;20014;-75
2023/08/25 07:23:49;;;;;;;;;;;27.50;90.00;;;;;;5096768;28;20388;-74
2023/08/25 07:26:15;;;;;;;;;;;27.50;90.00;;;;;;5096108;28;20369;-72
2023/08/25 07:28:41;;;;;;;;;;;27.60;90.10;;;;;;5096253;28;19908;-76
2023/08/25 07:31:07;;;;;;;;;;;27.50;90.00;;;;;;5096036;28;20007;-74
2023/08/25 07:33:32;;;;;;;;;;;27.60;90.10;;;;;;5095892;28;19969;-73
2023/08/25 07:35:58;;;;;;;;;;;27.60;90.10;;;;;;5095710;28;19954;-74
2023/08/25 07:38:23;;;;;;;;;;;27.50;90.00;;;;;;5095738;28;19908;-75
2023/08/25 07:40:49;;;;;;;;;;;27.50;90.00;;;;;;5095602;28;19955;-74
2023/08/25 07:43:14;;;;;;;;;;;27.50;90.00;;;;;;5096038;28;20363;-75
2023/08/25 07:45:40;;;;;;;;;;;27.50;90.00;;;;;;5095634;28;20317;-74
2023/08/25 07:48:05;;;;;;;;;;;27.50;90.00;;;;;;5095516;28;19919;-75
2023/08/25 07:50:32;;;;;;;;;;;27.50;90.00;;;;;;5095423;28;19912;-75
2023/08/25 07:52:57;;;;;;;;;;;27.50;90.00;;;;;;5095511;28;19912;-74
2023/08/25 07:55:23;;;;;;;;;;;27.50;89.90;;;;;;5095573;28;19915;-75
2023/08/25 07:57:48;;;;;;;;;;;27.50;89.70;;;;;;5095592;28;20153;-73
2023/08/25 08:00:18;;;;;;;;;;;27.50;90.10;;;;;;5095405;28;19908;-74
2023/08/25 08:02:47;;;;;;;;;;;27.50;89.80;;;;;;5095761;28;19908;-75
2023/08/25 08:05:14;;;;;;;;;;;27.50;89.80;;;;;;5095599;28;20375;-74
2023/08/25 08:07:39;;;;;;;;;;;27.50;89.70;;;;;;5095519;28;19912;-75
2023/08/25 08:10:05;;;;;;;;;;;27.50;89.70;;;;;;5095037;28;19912;-75
2023/08/25 08:12:30;;;;;;;;;;;27.50;89.70;;;;;;5095417;28;19912;-74
2023/08/25 08:14:56;;;;;;;;;;;27.50;89.40;;;;;;5095268;28;19931;-75
2023/08/25 08:17:21;;;;;;;;;;;27.50;89.30;;;;;;5095531;28;20271;-76
2023/08/25 08:19:48;;;;;;;;;;;27.50;89.50;;;;;;5095077;28;20283;-74
2023/08/25 08:22:14;;;;;;;;;;;27.50;89.50;;;;;;5095451;28;19962;-75
2023/08/25 08:24:41;;;;;;;;;;;27.50;89.50;;;;;;5095155;28;19982;-75
2023/08/25 08:27:07;;;;;;;;;;;27.50;89.50;;;;;;5094853;28;19947;-75
2023/08/25 08:29:33;;;;;;;;;;;27.50;89.50;;;;;;5095034;28;19955;-75
2023/08/25 08:31:58;;;;;;;;;;;27.50;89.10;;;;;;5094900;28;20381;-76
2023/08/25 08:34:24;;;;;;;;;;;27.50;88.40;;;;;;5095092;28;19999;-76
2023/08/25 08:36:49;;;;;;;;;;;27.50;89.00;;;;;;5095116;28;19918;-74
2023/08/25 08:39:15;;;;;;;;;;;27.50;89.00;;;;;;5094987;28;19908;-75
2023/08/25 08:41:40;;;;;;;;;;;27.50;89.30;;;;;;5094800;28;19908;-74
2023/08/25 08:44:08;;;;;;;;;;;27.50;89.40;;;;;;5094575;28;20317;-77
2023/08/25 08:46:35;;;;;;;;;;;27.50;89.50;;;;;;5094138;28;19920;-76
2023/08/25 08:49:02;;;;;;;;;;;27.50;89.50;;;;;;5094394;28;19908;-76
2023/08/25 08:51:29;;;;;;;;;;;27.50;89.60;;;;;;5094053;28;19912;-77
2023/08/25 08:53:55;;;;;;;;;;;27.50;89.70;;;;;;5094360;28;20422;-75
2023/08/25 08:56:21;;;;;;;;;;;27.50;89.70;;;;;;5094441;28;19951;-75
2023/08/25 08:58:47;;;;;;;;;;;27.50;89.80;;;;;;5094502;28;19999;-71
2023/08/25 09:01:13;;;;;;;;;;;27.50;89.80;;;;;;5094520;28;19947;-76
2023/08/25 09:03:39;;;;;;;;;;;27.50;89.80;;;;;;5094206;28;19995;-76
2023/08/25 09:06:05;;;;;;;;;;;27.50;89.80;;;;;;5094074;28;19908;-75
2023/08/25 09:08:31;;;;;;;;;;;27.50;89.70;;;;;;5094255;28;19915;-76
2023/08/25 09:11:01;;;;;;;;;;;27.50;89.70;;;;;;5094207;28;19912;-76
2023/08/25 09:13:29;;;;;;;;;;;27.50;89.80;;;;;;5094345;28;19912;-76
2023/08/25 09:15:55;;;;;;;;;;;27.50;89.90;;;;;;5094093;28;19909;-76
2023/08/25 09:18:20;;;;;;;;;;;27.50;89.90;;;;;;5094020;28;19915;-74
2023/08/25 09:20:46;;;;;;;;;;;27.40;89.90;;;;;;5093982;28;19934;-75
2023/08/25 09:23:11;;;;;;;;;;;27.40;90.00;;;;;;5094207;28;19927;-75
2023/08/25 09:25:41;;;;;;;;;;;27.50;90.00;;;;;;5094486;28;19915;-76
2023/08/25 09:28:06;;;;;;;;;;;27.40;90.00;;;;;;5093864;28;20014;-75
2023/08/25 09:30:38;;;;;;;;;;;27.50;90.10;;;;;;5092682;28;20400;-76
2023/08/25 09:33:07;;;;;;;;;;;27.50;90.10;;;;;;5093715;28;19919;-76
2023/08/25 09:35:33;;;;;;;;;;;27.50;90.10;;;;;;5093852;28;19908;-76
2023/08/25 09:37:58;;;;;;;;;;;27.50;90.10;;;;;;5092586;28;20386;-76
2023/08/25 09:40:25;;;;;;;;;;;27.50;90.10;;;;;;5093535;28;19915;-76
2023/08/25 09:42:55;;;;;;;;;;;27.40;90.10;;;;;;5093545;28;19930;-72
2023/08/25 09:45:21;;;;;;;;;;;27.50;90.20;;;;;;5093968;28;20271;-74
2023/08/25 09:47:46;;;;;;;;;;;27.40;90.10;;;;;;5093425;28;19908;-75
2023/08/25 09:50:12;;;;;;;;;;;27.50;90.20;;;;;;5093448;28;19934;-76
2023/08/25 09:52:40;;;;;;;;;;;27.50;90.30;;;;;;5093680;28;19923;-76
2023/08/25 09:55:05;;;;;;;;;;;27.50;90.30;;;;;;5093164;28;19912;-75
2023/08/25 09:57:32;;;;;;;;;;;27.40;90.20;;;;;;5093870;28;19908;-76
2023/08/25 09:59:58;;;;;;;;;;;27.40;90.30;;;;;;5093776;28;20065;-76
2023/08/25 10:02:24;;;;;;;;;;;27.40;90.30;;;;;;5094952;28;19908;-76
2023/08/25 10:04:50;;;;;;;;;;;27.50;90.30;;;;;;5097736;28;20003;-76
2023/08/25 10:07:16;;;;;;;;;;;27.40;90.30;;;;;;5097559;28;19923;-76
2023/08/25 10:09:41;;;;;;;;;;;27.40;90.30;;;;;;5097459;28;20406;-77
2023/08/25 10:12:08;;;;;;;;;;;27.50;90.40;;;;;;5097150;28;20333;-76
2023/08/25 10:14:36;;;;;;;;;;;27.50;90.40;;;;;;5097330;28;20335;-77
2023/08/25 10:17:03;;;;;;;;;;;27.40;90.30;;;;;;5097410;28;19947;-76
2023/08/25 10:19:29;;;;;;;;;;;27.40;90.40;;;;;;5097569;28;19961;-76
2023/08/25 10:21:55;;;;;;;;;;;27.50;90.40;;;;;;5097509;28;19909;-76
2023/08/25 10:24:21;;;;;;;;;;;27.50;90.40;;;;;;5097616;28;19915;-75
2023/08/25 10:26:48;;;;;;;;;;;27.40;90.40;;;;;;5097460;28;19908;-76
2023/08/25 10:29:16;;;;;;;;;;;27.40;90.50;;;;;;5097409;28;19908;-76
2023/08/25 10:31:48;;;;;;;;;;;27.40;90.50;;;;;;5097310;28;19923;-77
2023/08/25 10:34:29;;;;;;;;;;;27.50;90.70;;;;;;5097339;28;19920;-76
2023/08/25 10:37:06;;;;;;;;;;;27.40;90.40;;;;;;5096910;28;19908;-76
2023/08/25 10:39:50;;;;;;;;;;;27.40;90.50;;;;;;5095843;28;19908;-77
2023/08/25 10:42:21;;;;;;;;;;;27.40;90.50;;;;;;5097095;28;19908;-76
2023/08/25 10:44:51;;;;;;;;;;;27.40;90.50;;;;;;5096958;28;19923;-75
2023/08/25 10:47:18;;;;;;;;;;;27.40;90.50;;;;;;5097413;28;20266;-76
2023/08/25 10:49:44;;;;;;;;;;;27.40;90.50;;;;;;5096984;28;19908;-76
2023/08/25 10:52:16;;;;;;;;;;;27.40;90.60;;;;;;5096922;28;19916;-75
2023/08/25 10:54:44;;;;;;;;;;;27.40;90.60;;;;;;5097128;28;19968;-75
2023/08/25 10:57:25;;;;;;;;;;;27.40;90.60;;;;;;5096565;28;19912;-77
2023/08/25 10:59:54;;;;;;;;;;;27.40;90.50;;;;;;5096680;28;20292;-76
2023/08/25 11:02:38;;;;;;;;;;;27.40;90.60;;;;;;5096634;28;19912;-76
2023/08/25 11:05:22;;;;;;;;;;;27.40;90.60;;;;;;5096576;28;19915;-76
2023/08/25 11:07:48;;;;;;;;;;;27.40;90.60;;;;;;5096297;28;19908;-76
2023/08/25 11:10:13;;;;;;;;;;;27.40;90.60;;;;;;5096495;28;19957;-77
2023/08/25 11:12:40;;;;;;;;;;;27.40;90.60;;;;;;5096448;28;20362;-76
2023/08/25 11:15:09;;;;;;;;;;;27.40;90.70;;;;;;5095729;28;19912;-76
2023/08/25 11:17:34;;;;;;;;;;;27.40;90.70;;;;;;5096060;28;20355;-76
2023/08/25 11:20:00;;;;;;;;;;;27.40;90.70;;;;;;5096379;28;19914;-76
2023/08/25 11:22:26;;;;;;;;;;;27.40;90.70;;;;;;5096603;28;19908;-76
2023/08/25 11:24:51;;;;;;;;;;;27.40;90.70;;;;;;5096322;28;19977;-76
2023/08/25 11:27:18;;;;;;;;;;;27.40;90.70;;;;;;5096206;28;19908;-76
2023/08/25 11:29:44;;;;;;;;;;;27.40;90.70;;;;;;5096214;28;19908;-76
2023/08/25 11:32:11;;;;;;;;;;;27.40;90.70;;;;;;5095992;28;19912;-76
2023/08/25 11:34:37;;;;;;;;;;;27.40;90.80;;;;;;5095902;28;19912;-76
2023/08/25 11:37:02;;;;;;;;;;;27.40;90.80;;;;;;5096069;28;19909;-76
2023/08/25 11:39:28;;;;;;;;;;;27.40;90.80;;;;;;5095725;28;19915;-76
2023/08/25 11:41:54;;;;;;;;;;;27.40;90.80;;;;;;5095511;28;20022;-70
2023/08/25 11:44:20;;;;;;;;;;;27.40;90.80;;;;;;5095847;28;19912;-76
2023/08/25 11:46:45;;;;;;;;;;;27.40;90.80;;;;;;5095958;28;19942;-76
2023/08/25 11:49:11;;;;;;;;;;;27.40;90.80;;;;;;5095818;28;19908;-76
2023/08/25 11:51:36;;;;;;;;;;;27.40;90.80;;;;;;5095665;28;19912;-77
2023/08/25 11:54:02;;;;;;;;;;;27.40;90.80;;;;;;5095685;28;20394;-75
2023/08/25 11:56:28;;;;;;;;;;;27.40;90.80;;;;;;5095564;28;19916;-75
2023/08/25 11:58:53;;;;;;;;;;;27.40;90.80;;;;;;5095612;28;19908;-76
2023/08/25 12:01:19;;;;;;;;;;;27.40;90.80;;;;;;5095704;28;19919;-76
2023/08/25 12:03:45;;;;;;;;;;;27.40;90.80;;;;;;5095253;28;20316;-76
2023/08/25 12:06:11;;;;;;;;;;;27.40;90.80;;;;;;5095500;28;20270;-75
2023/08/25 12:08:39;;;;;;;;;;;27.40;90.80;;;;;;5095096;28;19912;-76
2023/08/25 12:11:06;;;;;;;;;;;27.40;90.80;;;;;;5095200;28;19912;-76
2023/08/25 12:13:32;;;;;;;;;;;27.40;90.80;;;;;;5095148;28;19912;-76
2023/08/25 12:15:58;;;;;;;;;;;27.40;90.90;;;;;;5095242;28;20007;-76
2023/08/25 12:18:34;;;;;;;;;;;27.40;90.80;;;;;;5095324;28;20000;-76
2023/08/25 12:21:03;;;;;;;;;;;27.40;90.80;;;;;;5095184;28;19912;-76
2023/08/25 12:23:35;;;;;;;;;;;27.40;90.90;;;;;;5095220;28;19912;-76
2023/08/25 12:26:05;;;;;;;;;;;27.40;90.90;;;;;;5094113;28;19909;-76
2023/08/25 12:28:31;;;;;;;;;;;27.40;90.90;;;;;;5094871;28;19953;-76
2023/08/25 12:30:57;;;;;;;;;;;27.40;90.90;;;;;;5095016;28;20006;-76
2023/08/25 12:33:22;;;;;;;;;;;27.40;90.90;;;;;;5095118;28;20381;-75
2023/08/25 12:35:48;;;;;;;;;;;27.40;90.90;;;;;;5094937;28;19909;-76
2023/08/25 12:38:14;;;;;;;;;;;27.40;90.90;;;;;;5094399;28;20428;-77
2023/08/25 12:40:39;;;;;;;;;;;27.40;90.90;;;;;;5094643;28;19916;-77
2023/08/25 12:43:04;;;;;;;;;;;27.40;90.90;;;;;;5095044;28;20366;-76
2023/08/25 12:45:30;;;;;;;;;;;27.30;90.90;;;;;;5094630;28;19965;-76
2023/08/25 12:48:04;;;;;;;;;;;27.40;90.90;;;;;;5091078;28;19912;-76
2023/08/25 12:50:29;;;;;;;;;;;27.30;90.90;;;;;;5091551;28;19923;-75
2023/08/25 12:52:55;;;;;;;;;;;27.40;90.90;;;;;;5091591;28;19915;-75
2023/08/25 12:55:21;;;;;;;;;;;27.30;90.90;;;;;;5089714;28;19908;-75
2023/08/25 12:57:46;;;;;;;;;;;27.40;90.90;;;;;;5090484;28;19944;-76
2023/08/25 13:00:12;;;;;;;;;;;27.40;90.90;;;;;;5090909;28;19912;-76
2023/08/25 13:02:41;;;;;;;;;;;27.40;90.90;;;;;;5090754;28;20358;-76
2023/08/25 13:05:09;;;;;;;;;;;27.40;90.90;;;;;;5090778;28;19931;-76
2023/08/25 13:07:36;;;;;;;;;;;27.30;90.90;;;;;;5090651;28;19920;-76
2023/08/25 13:10:03;;;;;;;;;;;27.40;90.90;;;;;;5090977;28;19968;-76
2023/08/25 13:12:29;;;;;;;;;;;27.40;91.00;;;;;;5090649;28;19915;-76
2023/08/25 13:14:54;;;;;;;;;;;27.40;91.00;;;;;;5091043;28;19912;-76
2023/08/25 13:17:20;;;;;;;;;;;27.30;90.90;;;;;;5089271;28;19934;-76
2023/08/25 13:19:45;;;;;;;;;;;27.30;90.90;;;;;;5090385;28;19909;-76
2023/08/25 13:22:11;;;;;;;;;;;27.40;91.00;;;;;;5090494;28;20370;-76
2023/08/25 13:24:36;;;;;;;;;;;27.40;91.00;;;;;;5090332;28;19911;-76
2023/08/25 13:27:02;;;;;;;;;;;27.40;91.00;;;;;;5090035;28;19978;-76
2023/08/25 13:29:28;;;;;;;;;;;27.30;91.00;;;;;;5090150;28;19931;-75
2023/08/25 13:31:53;;;;;;;;;;;27.40;91.20;;;;;;5090095;28;20351;-76
2023/08/25 13:34:19;;;;;;;;;;;27.40;91.00;;;;;;5090513;28;19909;-76
2023/08/25 13:36:44;;;;;;;;;;;27.40;91.00;;;;;;5090472;28;19935;-76
2023/08/25 13:39:10;;;;;;;;;;;27.30;91.00;;;;;;5090375;28;19909;-76
2023/08/25 13:41:35;;;;;;;;;;;27.40;91.00;;;;;;5090263;28;19955;-76
2023/08/25 13:44:02;;;;;;;;;;;27.40;91.00;;;;;;5089877;28;19944;-76
2023/08/25 13:46:28;;;;;;;;;;;27.30;91.00;;;;;;5082624;28;20011;-76
2023/08/25 13:48:53;;;;;;;;;;;27.40;91.00;;;;;;5069604;28;19995;-75
2023/08/25 13:51:19;;;;;;;;;;;27.40;91.00;;;;;;5069264;28;19916;-76
2023/08/25 13:53:45;;;;;;;;;;;27.40;91.00;;;;;;5069473;28;20379;-76
2023/08/25 13:56:11;;;;;;;;;;;27.30;91.00;;;;;;5069645;28;19909;-75
2023/08/25 13:58:37;;;;;;;;;;;27.40;91.00;;;;;;5060801;28;20257;-76
2023/08/25 14:01:03;;;;;;;;;;;27.30;91.00;;;;;;5056123;28;19909;-77
2023/08/25 14:03:31;;;;;;;;;;;27.30;91.00;;;;;;5056302;28;20362;-76
2023/08/25 14:05:56;;;;;;;;;;;27.30;91.00;;;;;;5056201;28;19916;-76
2023/08/25 14:08:22;;;;;;;;;;;27.40;91.00;;;;;;5056270;28;19920;-76
2023/08/25 14:10:48;;;;;;;;;;;27.40;91.00;;;;;;5038232;28;19913;-76